createdAt,value
2019-01-31T00:00:44.461Z,2.37
2019-01-31T00:05:01.938Z,1.97
2019-01-31T00:09:11.679Z,2.20
2019-01-31T00:13:16.751Z,2.57
2019-01-31T00:17:46.394Z,1.13
2019-01-31T00:21:59.984Z,1.13
2019-01-31T00:26:18.996Z,2.27
2019-01-31T00:30:42.607Z,3.40
2019-01-31T00:35:15.404Z,2.13
2019-01-31T00:39:39.128Z,2.17
2019-01-31T00:43:50.541Z,0.75
2019-01-31T00:47:53.773Z,1.57
2019-01-31T00:52:23.370Z,0.93
2019-01-31T00:56:33.956Z,1.00
2019-01-31T01:00:45.384Z,1.17
2019-01-31T01:05:11.393Z,1.17
2019-01-31T01:09:13.756Z,2.37
2019-01-31T01:13:25.066Z,0.63
2019-01-31T01:17:30.373Z,1.87
2019-01-31T01:21:53.999Z,0.90
2019-01-31T01:25:56.476Z,1.67
2019-01-31T01:30:04.828Z,0.60
2019-01-31T01:34:25.063Z,1.87
2019-01-31T01:38:33.159Z,1.57
2019-01-31T01:42:53.923Z,0.87
2019-01-31T01:47:02.004Z,1.57
2019-01-31T01:51:07.279Z,1.37
2019-01-31T01:55:15.164Z,2.27
2019-01-31T01:59:33.816Z,0.50
2019-01-31T02:03:41.945Z,1.73
2019-01-31T02:07:53.113Z,2.90
2019-01-31T02:12:16.524Z,1.80
2019-01-31T02:16:33.396Z,1.90
2019-01-31T02:20:53.496Z,1.17
2019-01-31T02:25:01.689Z,1.80
2019-01-31T02:29:16.012Z,2.17
2019-01-31T02:33:33.549Z,4.17
2019-01-31T02:37:44.724Z,1.63
2019-01-31T02:42:08.064Z,0.60
2019-01-31T02:46:22.556Z,4.57
2019-01-31T02:50:42.755Z,3.13
2019-01-31T02:54:48.213Z,1.23
2019-01-31T02:58:53.244Z,0.87
2019-01-31T03:03:10.415Z,0.80
2019-01-31T03:07:27.777Z,0.95
2019-01-31T03:11:32.760Z,2.77
2019-01-31T03:15:44.138Z,1.20
2019-01-31T03:20:08.448Z,2.47
2019-01-31T03:24:30.580Z,1.80
2019-01-31T03:28:52.579Z,1.67
2019-01-31T03:33:14.249Z,1.07
2019-01-31T03:37:28.605Z,3.17
2019-01-31T03:41:58.296Z,1.10
2019-01-31T03:46:20.480Z,1.25
2019-01-31T03:50:22.868Z,1.80
2019-01-31T03:54:36.876Z,2.53
2019-01-31T03:58:47.924Z,1.57
2019-01-31T04:02:50.292Z,2.03
2019-01-31T04:06:49.398Z,0.80
2019-01-31T04:10:48.527Z,3.50
2019-01-31T04:14:48.619Z,1.23
2019-01-31T04:18:47.782Z,1.90
2019-01-31T04:22:47.988Z,1.73
2019-01-31T04:26:47.120Z,1.17
2019-01-31T04:30:46.252Z,1.30
2019-01-31T04:34:45.418Z,3.27
2019-01-31T04:38:45.501Z,1.20
2019-01-31T04:42:44.753Z,2.72
2019-01-31T04:46:43.869Z,1.63
2019-01-31T04:50:42.986Z,1.47
2019-01-31T04:54:42.095Z,0.77
2019-01-31T04:58:41.207Z,2.33
2019-01-31T05:02:40.329Z,1.27
2019-01-31T05:06:39.428Z,2.40
2019-01-31T05:10:43.308Z,2.30
2019-01-31T05:14:39.371Z,2.77
2019-01-31T05:18:38.737Z,2.70
2019-01-31T05:22:37.801Z,1.80
2019-01-31T05:26:36.913Z,1.77
2019-01-31T05:30:36.102Z,2.67
2019-01-31T05:34:35.204Z,2.00
2019-01-31T05:38:34.316Z,0.97
2019-01-31T05:42:33.424Z,2.90
2019-01-31T05:46:32.536Z,1.53
2019-01-31T05:50:31.653Z,1.23
2019-01-31T05:54:30.847Z,1.10
2019-01-31T05:58:30.044Z,1.20
2019-01-31T06:02:29.140Z,1.57
2019-01-31T06:06:28.260Z,1.20
2019-01-31T06:10:27.381Z,1.20
2019-01-31T06:14:26.490Z,4.00
2019-01-31T06:18:25.775Z,2.42
2019-01-31T06:22:25.174Z,3.13
2019-01-31T06:26:24.484Z,2.17
2019-01-31T06:30:23.607Z,1.73
2019-01-31T06:34:22.728Z,2.10
2019-01-31T06:38:21.828Z,4.67
2019-01-31T06:42:20.949Z,6.70
2019-01-31T06:46:20.078Z,3.40
2019-01-31T06:50:19.181Z,1.43
2019-01-31T06:54:19.356Z,1.63
2019-01-31T06:58:18.477Z,3.43
2019-01-31T07:02:17.680Z,3.20
2019-01-31T07:06:16.823Z,1.57
2019-01-31T07:10:21.620Z,5.10
2019-01-31T07:14:20.742Z,2.10
2019-01-31T07:18:19.856Z,4.40
2019-01-31T07:22:19.976Z,5.10
2019-01-31T07:26:19.100Z,4.93
2019-01-31T07:30:20.347Z,4.47
2019-01-31T07:34:19.552Z,5.10
2019-01-31T07:38:18.681Z,5.33
2019-01-31T07:42:17.800Z,2.90
2019-01-31T07:46:16.994Z,1.33
2019-01-31T07:50:18.148Z,5.90
2019-01-31T07:54:17.268Z,2.23
2019-01-31T07:58:16.384Z,3.43
2019-01-31T08:02:15.489Z,3.80
2019-01-31T08:06:14.605Z,5.00
2019-01-31T08:10:19.680Z,3.10
2019-01-31T08:14:18.802Z,3.17
2019-01-31T08:18:17.913Z,5.97
2019-01-31T08:22:17.098Z,3.47
2019-01-31T08:26:16.201Z,4.23
2019-01-31T08:30:18.078Z,3.80
2019-01-31T08:34:17.180Z,3.13
2019-01-31T08:38:16.296Z,8.43
2019-01-31T08:42:15.438Z,3.53
2019-01-31T08:46:14.579Z,5.03
2019-01-31T08:50:19.127Z,7.20
2019-01-31T08:54:19.320Z,9.13
2019-01-31T08:58:18.785Z,9.80
2019-01-31T09:02:18.057Z,12.63
2019-01-31T09:06:18.054Z,6.97
2019-01-31T09:10:34.969Z,17.27
2019-01-31T09:14:34.085Z,7.00
2019-01-31T09:18:33.226Z,13.10
2019-01-31T09:22:33.226Z,11.50
2019-01-31T09:26:48.880Z,13.93
2019-01-31T09:30:56.974Z,14.03
2019-01-31T09:35:11.345Z,9.83
2019-01-31T09:39:16.659Z,8.80
2019-01-31T09:43:28.123Z,7.80
2019-01-31T09:47:36.580Z,10.13
2019-01-31T09:51:44.789Z,13.00
2019-01-31T09:56:13.141Z,10.57
2019-01-31T10:00:27.602Z,8.43
2019-01-31T10:04:31.315Z,13.57
2019-01-31T10:08:45.500Z,10.57
2019-01-31T10:12:56.706Z,7.80
2019-01-31T10:17:02.138Z,8.03
2019-01-31T10:21:07.007Z,6.53
2019-01-31T10:25:12.159Z,7.78
2019-01-31T10:29:32.800Z,7.27
2019-01-31T10:33:54.888Z,6.72
2019-01-31T10:37:57.255Z,6.92
2019-01-31T10:42:02.277Z,8.97
2019-01-31T10:46:07.404Z,10.80
2019-01-31T10:50:41.817Z,8.83
2019-01-31T10:54:49.859Z,7.53
2019-01-31T10:58:57.864Z,9.53
2019-01-31T11:03:03.196Z,6.93
2019-01-31T11:07:23.540Z,10.75
2019-01-31T11:11:52.688Z,8.17
2019-01-31T11:16:01.064Z,10.07
2019-01-31T11:20:36.745Z,9.87
2019-01-31T11:24:59.608Z,7.10
2019-01-31T11:29:24.889Z,7.17
2019-01-31T11:33:56.333Z,6.28
2019-01-31T11:38:04.532Z,9.63
2019-01-31T11:42:15.804Z,6.70
2019-01-31T11:46:21.055Z,8.33
2019-01-31T11:50:43.115Z,11.83
2019-01-31T11:54:45.470Z,5.13
2019-01-31T11:58:49.766Z,9.00
2019-01-31T12:02:55.193Z,7.83
2019-01-31T12:06:50.788Z,9.93
2019-01-31T12:10:49.884Z,7.00
2019-01-31T12:14:49.126Z,6.43
2019-01-31T12:18:48.289Z,9.50
2019-01-31T12:22:47.400Z,9.43
2019-01-31T12:26:46.496Z,7.60
2019-01-31T12:30:45.615Z,7.60
2019-01-31T12:34:44.712Z,10.63
2019-01-31T12:38:43.828Z,8.90
2019-01-31T12:42:42.921Z,9.87
2019-01-31T12:46:42.033Z,7.37
2019-01-31T12:50:42.208Z,9.03
2019-01-31T12:54:41.325Z,8.03
2019-01-31T12:58:40.422Z,7.63
2019-01-31T13:02:39.541Z,6.60
2019-01-31T13:06:38.636Z,8.00
2019-01-31T13:10:37.753Z,5.90
2019-01-31T13:14:37.921Z,6.37
2019-01-31T13:18:37.047Z,8.00
2019-01-31T13:22:36.140Z,8.87
2019-01-31T13:26:35.252Z,5.67
2019-01-31T13:30:34.360Z,5.03
2019-01-31T13:34:33.460Z,6.43
2019-01-31T13:38:32.572Z,7.73
2019-01-31T13:42:31.710Z,8.07
2019-01-31T13:46:30.804Z,6.00
2019-01-31T13:50:29.934Z,5.90
2019-01-31T13:54:29.032Z,7.47
2019-01-31T13:58:28.164Z,3.77
2019-01-31T14:02:27.264Z,4.17
2019-01-31T14:06:26.398Z,9.53
2019-01-31T14:10:26.647Z,9.07
2019-01-31T14:14:25.760Z,5.90
2019-01-31T14:18:24.876Z,8.40
2019-01-31T14:22:24.036Z,12.37
2019-01-31T14:26:23.165Z,9.97
2019-01-31T14:30:30.140Z,7.70
2019-01-31T14:34:29.240Z,6.50
2019-01-31T14:38:28.335Z,5.47
2019-01-31T14:42:27.452Z,5.07
2019-01-31T14:46:26.567Z,13.50
2019-01-31T14:50:31.715Z,5.50
2019-01-31T14:54:30.829Z,6.93
2019-01-31T14:58:29.944Z,7.67
2019-01-31T15:02:29.042Z,3.87
2019-01-31T15:06:28.156Z,14.45
2019-01-31T15:10:30.263Z,11.77
2019-01-31T15:14:31.866Z,4.13
2019-01-31T15:18:30.335Z,5.47
2019-01-31T15:22:29.444Z,2.77
2019-01-31T15:26:29.082Z,5.43
2019-01-31T15:30:34.826Z,5.92
2019-01-31T15:34:34.865Z,4.60
2019-01-31T15:38:33.991Z,6.20
2019-01-31T15:42:33.420Z,4.20
2019-01-31T15:46:32.836Z,9.33
2019-01-31T15:50:32.128Z,9.00
2019-01-31T15:54:31.235Z,12.77
2019-01-31T15:58:32.730Z,9.83
2019-01-31T16:02:31.980Z,5.37
2019-01-31T16:06:31.233Z,4.20
2019-01-31T16:10:30.332Z,2.67
2019-01-31T16:14:29.660Z,3.27
2019-01-31T16:18:28.765Z,3.20
2019-01-31T16:22:28.378Z,6.50
2019-01-31T16:26:27.480Z,5.50
2019-01-31T16:30:27.098Z,5.53
2019-01-31T16:34:26.280Z,6.57
2019-01-31T16:38:25.409Z,5.00
2019-01-31T16:42:24.580Z,4.17
2019-01-31T16:46:24.081Z,5.10
2019-01-31T16:50:24.225Z,4.97
2019-01-31T16:54:23.788Z,5.12
2019-01-31T16:58:22.892Z,4.73
2019-01-31T17:02:23.365Z,4.33
2019-01-31T17:06:22.529Z,4.40
2019-01-31T17:10:21.675Z,4.00
2019-01-31T17:14:20.783Z,7.03
2019-01-31T17:18:19.910Z,8.40
2019-01-31T17:22:19.012Z,20.80
2019-01-31T17:26:18.477Z,16.50
2019-01-31T17:30:25.472Z,10.57
2019-01-31T17:34:24.820Z,8.00
2019-01-31T17:38:23.922Z,6.00
2019-01-31T17:42:23.514Z,7.57
2019-01-31T17:46:22.853Z,7.87
2019-01-31T17:50:22.137Z,5.87
2019-01-31T17:54:21.428Z,5.70
2019-01-31T17:58:20.964Z,6.13
2019-01-31T18:02:20.068Z,5.47
2019-01-31T18:06:19.825Z,4.07
2019-01-31T18:10:22.600Z,4.40
2019-01-31T18:14:22.015Z,3.67
2019-01-31T18:18:21.112Z,5.13
2019-01-31T18:22:20.516Z,5.95
2019-01-31T18:26:19.678Z,4.20
2019-01-31T18:30:25.011Z,3.60
2019-01-31T18:34:24.115Z,5.47
2019-01-31T18:38:23.354Z,4.17
2019-01-31T18:42:23.028Z,3.12
2019-01-31T18:46:23.033Z,4.77
2019-01-31T18:50:24.172Z,3.00
2019-01-31T18:54:24.063Z,3.77
2019-01-31T18:58:24.141Z,4.90
2019-01-31T19:02:23.670Z,3.80
2019-01-31T19:06:23.009Z,5.60
2019-01-31T19:10:22.243Z,5.00
2019-01-31T19:14:21.684Z,3.52
2019-01-31T19:18:21.581Z,9.23
2019-01-31T19:22:21.353Z,6.73
2019-01-31T19:26:21.051Z,11.12
2019-01-31T19:30:25.877Z,7.87
2019-01-31T19:34:26.048Z,7.70
2019-01-31T19:38:25.683Z,9.90
2019-01-31T19:42:25.592Z,9.40
2019-01-31T19:46:25.733Z,7.80
2019-01-31T19:50:25.721Z,5.50
2019-01-31T19:54:27.237Z,6.23
2019-01-31T19:58:27.040Z,7.45
2019-01-31T20:02:26.999Z,6.97
2019-01-31T20:06:27.001Z,4.53
2019-01-31T20:10:30.803Z,5.27
2019-01-31T20:14:30.165Z,7.77
2019-01-31T20:18:29.948Z,4.63
2019-01-31T20:22:29.203Z,6.33
2019-01-31T20:26:30.060Z,5.55
2019-01-31T20:30:31.363Z,3.27
2019-01-31T20:34:31.220Z,4.63
2019-01-31T20:38:32.148Z,6.73
2019-01-31T20:42:31.885Z,8.70
2019-01-31T20:46:39.851Z,7.63
2019-01-31T20:50:35.189Z,6.37
2019-01-31T20:54:34.777Z,6.50
2019-01-31T20:58:35.544Z,4.97
2019-01-31T21:02:34.822Z,7.20
2019-01-31T21:06:41.253Z,5.00
2019-01-31T21:10:35.229Z,7.67
2019-01-31T21:14:35.445Z,6.83
2019-01-31T21:18:34.560Z,9.75
2019-01-31T21:22:33.806Z,7.23
2019-01-31T21:26:33.268Z,7.73
2019-01-31T21:30:37.136Z,6.90
2019-01-31T21:34:36.431Z,7.77
2019-01-31T21:38:35.576Z,5.20
2019-01-31T21:42:35.131Z,9.13
2019-01-31T21:46:34.301Z,8.47
2019-01-31T21:50:33.425Z,6.80
2019-01-31T21:54:32.541Z,9.18
2019-01-31T21:58:31.652Z,5.17
2019-01-31T22:02:30.753Z,6.17
2019-01-31T22:06:30.181Z,11.07
2019-01-31T22:10:29.296Z,5.60
2019-01-31T22:14:28.456Z,11.08
2019-01-31T22:18:27.575Z,5.90
2019-01-31T22:22:26.696Z,9.10
2019-01-31T22:26:25.917Z,6.17
2019-01-31T22:30:30.435Z,5.93
2019-01-31T22:34:29.553Z,8.70
2019-01-31T22:38:28.769Z,6.30
2019-01-31T22:42:27.865Z,4.97
2019-01-31T22:46:26.977Z,6.00
2019-01-31T22:50:26.103Z,7.87
2019-01-31T22:54:25.208Z,8.30
2019-01-31T22:58:24.417Z,9.10
2019-01-31T23:02:23.511Z,6.43
2019-01-31T23:06:22.708Z,6.17
2019-01-31T23:10:21.828Z,6.87
2019-01-31T23:14:21.128Z,8.17
2019-01-31T23:18:20.231Z,7.10
2019-01-31T23:22:19.391Z,9.65
2019-01-31T23:26:18.531Z,6.57
2019-01-31T23:30:17.725Z,8.03
2019-01-31T23:34:16.836Z,6.70
2019-01-31T23:38:15.958Z,10.73
2019-01-31T23:42:15.102Z,8.37
2019-01-31T23:46:14.205Z,8.43
2019-01-31T23:50:13.393Z,11.13
2019-01-31T23:54:12.491Z,8.50
2019-01-31T23:58:11.617Z,9.93
